Time;durP1;ratioP1;P1;durP2;ratioP2;P2;SDS_P1;SDS_P2;PMS_P1;PMS_P2;Temp;Humidity;BMP_temperature;BMP_pressure;BME280_temperature;BME280_humidity;BME280_pressure;Samples;Min_cycle;Max_cycle;Signal;HPM_P1;HPM_P2
2021/10/20 04:01:37;;;;;;;7.40;6.80;;;14.50;99.90;;;;;;5377976;23;20479;-69
2021/10/20 04:04:04;;;;;;;7.10;6.40;;;14.50;99.90;;;;;;4940745;29;20540;-66
2021/10/20 04:06:31;;;;;;;7.83;6.47;;;14.40;99.90;;;;;;4944810;29;20479;-68
2021/10/20 04:08:58;;;;;;;7.30;6.77;;;14.40;99.90;;;;;;4969220;28;20464;-67
2021/10/20 04:11:24;;;;;;;6.57;6.07;;;14.40;99.90;;;;;;4974815;28;20562;-67
2021/10/20 04:13:51;;;;;;;6.80;6.30;;;14.40;99.90;;;;;;4948192;28;20524;-69
2021/10/20 04:16:17;;;;;;;7.33;6.73;;;14.40;99.90;;;;;;4936960;29;20461;-69
2021/10/20 04:18:45;;;;;;;6.97;6.40;;;14.30;99.90;;;;;;4944131;29;20475;-69
2021/10/20 04:21:12;;;;;;;6.77;6.20;;;14.40;99.90;;;;;;4939422;29;20482;-70
2021/10/20 04:23:39;;;;;;;6.77;6.20;;;14.40;99.90;;;;;;4947039;29;20488;-69
2021/10/20 04:26:05;;;;;;;6.53;6.10;;;14.40;99.90;;;;;;4942192;29;20476;-69
2021/10/20 04:28:32;;;;;;;6.43;5.93;;;14.30;99.90;;;;;;4944869;29;20479;-69
2021/10/20 04:30:59;;;;;;;7.70;7.00;;;14.30;99.90;;;;;;4943697;29;20521;-69
2021/10/20 04:33:26;;;;;;;7.37;6.63;;;14.30;99.90;;;;;;4944010;29;20830;-69
2021/10/20 04:35:53;;;;;;;6.07;5.70;;;14.20;99.90;;;;;;4945602;29;20473;-69
2021/10/20 04:38:20;;;;;;;6.87;6.27;;;14.20;99.90;;;;;;4952960;29;20876;-70
2021/10/20 04:40:47;;;;;;;7.17;6.57;;;14.20;99.90;;;;;;4945543;29;20889;-69
2021/10/20 04:43:13;;;;;;;6.73;6.20;;;14.20;99.90;;;;;;4954073;29;20481;-69
2021/10/20 04:45:40;;;;;;;5.90;5.60;;;14.20;99.90;;;;;;4945808;29;20798;-70
2021/10/20 04:48:07;;;;;;;6.60;6.13;;;14.20;99.90;;;;;;4938699;29;20488;-70
2021/10/20 04:50:34;;;;;;;6.37;5.77;;;14.10;99.90;;;;;;4943660;29;20491;-70
2021/10/20 04:53:03;;;;;;;6.70;6.20;;;14.10;99.90;;;;;;4935787;29;20462;-69
2021/10/20 04:55:30;;;;;;;7.67;7.07;;;14.10;99.90;;;;;;4939149;29;20584;-69
2021/10/20 04:57:56;;;;;;;6.60;6.20;;;14.10;99.90;;;;;;4948386;29;20601;-69
2021/10/20 05:00:25;;;;;;;5.97;5.53;;;14.10;99.90;;;;;;4952821;29;21032;-69
2021/10/20 05:02:52;;;;;;;5.53;5.13;;;14.20;99.90;;;;;;4954773;28;20613;-70
2021/10/20 05:05:18;;;;;;;6.63;6.13;;;14.20;99.90;;;;;;4938633;28;20992;-70
2021/10/20 05:07:49;;;;;;;6.70;6.10;;;14.10;99.90;;;;;;4941500;29;20465;-69
2021/10/20 05:10:18;;;;;;;6.20;5.77;;;14.20;99.90;;;;;;4949218;29;21041;-69
2021/10/20 05:12:45;;;;;;;5.10;4.80;;;14.20;99.90;;;;;;4933693;29;21029;-71
2021/10/20 05:15:12;;;;;;;6.10;5.60;;;14.30;99.90;;;;;;4937158;29;20497;-69
2021/10/20 05:17:40;;;;;;;5.90;5.47;;;14.20;99.90;;;;;;4945794;29;20465;-70
2021/10/20 05:20:09;;;;;;;6.30;5.70;;;14.30;99.90;;;;;;4950783;29;20547;-69
2021/10/20 05:22:35;;;;;;;6.03;5.53;;;14.30;99.90;;;;;;4954062;29;20482;-70
2021/10/20 05:25:02;;;;;;;6.80;5.97;;;14.30;99.90;;;;;;4950172;29;20899;-70
2021/10/20 05:27:30;;;;;;;5.63;5.20;;;14.30;99.90;;;;;;4952284;29;20826;-69
2021/10/20 05:29:57;;;;;;;5.10;4.80;;;14.30;99.90;;;;;;4936769;29;20465;-70
2021/10/20 05:32:25;;;;;;;6.70;6.20;;;14.30;99.90;;;;;;4934921;29;20493;-69
2021/10/20 05:34:52;;;;;;;5.63;5.23;;;14.30;99.90;;;;;;4950346;29;20548;-70
2021/10/20 05:37:19;;;;;;;5.90;5.30;;;14.30;99.90;;;;;;4952452;29;20465;-70
2021/10/20 05:39:47;;;;;;;7.80;6.10;;;14.30;99.90;;;;;;4949578;29;20465;-69
2021/10/20 05:42:13;;;;;;;5.80;5.30;;;14.30;99.90;;;;;;4949867;29;20480;-69
2021/10/20 05:44:41;;;;;;;5.30;5.00;;;14.40;99.90;;;;;;4952471;29;20576;-69
2021/10/20 05:47:08;;;;;;;7.37;6.43;;;14.30;99.90;;;;;;4952969;29;20866;-70
2021/10/20 05:49:35;;;;;;;6.07;5.60;;;14.30;99.90;;;;;;4953700;29;20468;-70
2021/10/20 05:52:01;;;;;;;6.03;5.63;;;14.30;99.90;;;;;;4947725;29;20489;-70
2021/10/20 05:54:28;;;;;;;5.57;5.20;;;14.30;99.90;;;;;;4934380;29;20472;-69
2021/10/20 05:56:55;;;;;;;7.03;6.60;;;14.30;99.90;;;;;;4939076;29;20492;-70
2021/10/20 05:59:23;;;;;;;5.87;5.40;;;14.30;99.90;;;;;;4953507;29;20847;-70
2021/10/20 06:01:51;;;;;;;6.37;5.87;;;14.40;99.90;;;;;;4944843;28;20548;-70
2021/10/20 06:04:18;;;;;;;5.50;5.20;;;14.40;99.90;;;;;;4934474;29;20494;-70
2021/10/20 06:06:45;;;;;;;5.67;5.27;;;14.40;99.90;;;;;;4938767;29;20489;-71
2021/10/20 06:09:13;;;;;;;6.43;5.93;;;14.40;99.90;;;;;;4953078;29;20475;-70
2021/10/20 06:11:40;;;;;;;5.53;5.13;;;14.50;99.90;;;;;;4936871;28;20529;-70
2021/10/20 06:14:06;;;;;;;5.90;5.57;;;14.50;99.90;;;;;;4942074;29;20461;-70
2021/10/20 06:16:36;;;;;;;5.33;4.93;;;14.40;99.90;;;;;;4952291;29;20946;-70
2021/10/20 06:19:04;;;;;;;5.97;5.67;;;14.40;99.90;;;;;;4933886;29;20528;-70
2021/10/20 06:21:31;;;;;;;6.57;6.10;;;14.40;99.90;;;;;;4948238;29;20489;-70
2021/10/20 06:23:59;;;;;;;6.30;5.90;;;14.40;99.90;;;;;;4946382;28;20560;-70
2021/10/20 06:26:25;;;;;;;6.70;6.10;;;14.40;99.90;;;;;;4933662;29;20548;-70
2021/10/20 06:28:53;;;;;;;5.90;5.17;;;14.40;99.90;;;;;;4940689;29;20469;-70
2021/10/20 06:31:20;;;;;;;5.80;5.40;;;14.30;99.90;;;;;;4932890;29;20484;-70
2021/10/20 06:33:46;;;;;;;6.07;5.57;;;14.30;99.90;;;;;;4946911;29;20464;-70
2021/10/20 06:36:21;;;;;;;5.60;5.20;;;14.30;99.90;;;;;;4947673;29;21045;-70
2021/10/20 06:38:48;;;;;;;6.07;5.67;;;14.40;99.90;;;;;;4940219;29;20464;-70
2021/10/20 06:41:14;;;;;;;5.60;5.27;;;14.30;99.90;;;;;;4938002;29;20493;-70
2021/10/20 06:43:41;;;;;;;6.17;5.70;;;14.40;99.90;;;;;;4942501;29;20864;-70
2021/10/20 06:46:09;;;;;;;6.97;6.53;;;14.40;99.90;;;;;;4942339;29;20480;-70
2021/10/20 06:48:36;;;;;;;5.67;5.37;;;14.40;99.90;;;;;;4943233;29;20201;-70
2021/10/20 06:51:02;;;;;;;6.13;5.70;;;14.40;99.90;;;;;;4942876;29;20485;-70
2021/10/20 06:53:30;;;;;;;6.33;5.67;;;14.40;99.90;;;;;;4941581;29;20468;-70
2021/10/20 06:55:57;;;;;;;7.63;5.40;;;14.50;99.90;;;;;;4939856;29;20865;-69
2021/10/20 06:58:23;;;;;;;6.40;5.90;;;14.50;99.90;;;;;;4941553;28;20490;-68
2021/10/20 07:00:50;;;;;;;5.70;5.17;;;14.50;99.90;;;;;;4954227;28;20519;-69
2021/10/20 07:03:17;;;;;;;5.90;5.60;;;14.60;99.90;;;;;;4937348;29;20524;-69
2021/10/20 07:05:43;;;;;;;5.83;5.43;;;14.60;99.90;;;;;;4950819;29;20492;-68
2021/10/20 07:08:10;;;;;;;6.00;5.60;;;14.60;99.90;;;;;;4945660;28;20980;-68
2021/10/20 07:10:38;;;;;;;6.80;6.20;;;14.70;99.90;;;;;;4950357;28;20541;-69
2021/10/20 07:13:05;;;;;;;5.50;5.20;;;14.70;99.90;;;;;;4949179;29;20534;-69
2021/10/20 07:15:32;;;;;;;5.57;5.17;;;14.70;99.90;;;;;;4937625;29;20469;-69
2021/10/20 07:17:59;;;;;;;5.90;5.40;;;14.70;99.90;;;;;;4944888;28;20698;-70
2021/10/20 07:20:26;;;;;;;5.87;5.47;;;14.70;99.90;;;;;;4940826;28;20511;-69
2021/10/20 07:22:53;;;;;;;6.43;5.93;;;14.80;99.90;;;;;;4947627;29;20535;-70
2021/10/20 07:25:20;;;;;;;6.67;6.27;;;14.80;99.90;;;;;;4938598;29;20489;-70
2021/10/20 07:27:48;;;;;;;6.70;6.10;;;14.80;99.90;;;;;;4938079;29;20468;-70
2021/10/20 07:30:16;;;;;;;6.50;6.00;;;14.80;99.90;;;;;;4944465;28;20461;-70
2021/10/20 07:32:44;;;;;;;5.90;5.40;;;14.90;99.90;;;;;;4940804;29;20462;-69
2021/10/20 07:35:12;;;;;;;6.00;5.50;;;14.90;99.90;;;;;;4948631;28;20854;-72
2021/10/20 07:37:40;;;;;;;6.93;5.90;;;14.90;99.90;;;;;;4946763;29;20541;-70
2021/10/20 07:40:08;;;;;;;7.77;6.20;;;15.00;99.90;;;;;;4936816;29;20489;-70
2021/10/20 07:42:37;;;;;;;5.30;5.00;;;15.00;99.90;;;;;;4945615;29;20473;-73
2021/10/20 07:45:07;;;;;;;6.90;6.30;;;15.10;99.90;;;;;;4938117;29;20863;-71
2021/10/20 07:47:34;;;;;;;6.90;6.30;;;15.10;99.90;;;;;;4938912;29;20461;-70
2021/10/20 07:50:01;;;;;;;6.83;6.27;;;15.10;99.90;;;;;;4948125;29;20499;-70
2021/10/20 07:52:28;;;;;;;6.60;6.00;;;15.20;99.90;;;;;;4944567;29;20480;-69
2021/10/20 07:54:55;;;;;;;6.97;6.43;;;15.20;99.90;;;;;;4937913;29;20954;-72
2021/10/20 07:57:22;;;;;;;7.07;6.60;;;15.30;99.90;;;;;;4952244;29;20464;-71
2021/10/20 07:59:48;;;;;;;8.10;6.23;;;15.30;99.90;;;;;;4955558;29;20468;-71
2021/10/20 08:02:17;;;;;;;7.23;6.53;;;15.30;99.90;;;;;;4955579;29;20496;-71
2021/10/20 08:04:43;;;;;;;6.57;5.87;;;15.40;99.90;;;;;;4955206;29;20488;-71
2021/10/20 08:07:10;;;;;;;7.47;6.87;;;15.40;99.90;;;;;;4955287;29;20468;-71
2021/10/20 08:09:37;;;;;;;7.60;6.90;;;15.40;99.90;;;;;;4954762;29;20543;-71
2021/10/20 08:12:04;;;;;;;7.50;6.90;;;15.40;99.90;;;;;;4955378;29;20592;-71
2021/10/20 08:14:33;;;;;;;7.67;6.97;;;15.50;99.90;;;;;;4955360;29;20471;-69
2021/10/20 08:16:59;;;;;;;7.63;6.73;;;15.50;99.90;;;;;;4943954;29;20472;-69
2021/10/20 08:19:27;;;;;;;7.37;6.63;;;15.60;99.90;;;;;;4936171;29;20886;-69
2021/10/20 08:21:54;;;;;;;6.70;6.10;;;15.60;99.90;;;;;;4935886;29;20501;-69
2021/10/20 08:24:20;;;;;;;6.37;5.97;;;15.70;99.90;;;;;;4935590;29;20565;-69
2021/10/20 08:26:47;;;;;;;6.77;6.27;;;15.70;99.90;;;;;;4945235;29;20460;-69
2021/10/20 08:29:14;;;;;;;7.30;6.60;;;15.70;99.90;;;;;;4954244;29;20487;-69
2021/10/20 08:31:40;;;;;;;6.57;6.07;;;15.70;99.90;;;;;;4955072;29;20484;-69
2021/10/20 08:34:07;;;;;;;7.10;6.50;;;15.80;99.90;;;;;;4948662;29;20470;-69
2021/10/20 08:36:35;;;;;;;7.87;7.27;;;15.80;99.90;;;;;;4954112;28;20468;-69
2021/10/20 08:39:02;;;;;;;6.80;6.30;;;15.80;99.90;;;;;;4954859;29;20563;-69
2021/10/20 08:41:29;;;;;;;8.00;7.20;;;15.80;99.90;;;;;;4954648;29;20544;-70
2021/10/20 08:43:57;;;;;;;8.30;7.60;;;15.80;99.90;;;;;;4954854;29;20817;-71
2021/10/20 08:46:25;;;;;;;6.70;6.00;;;15.90;99.90;;;;;;4953350;28;20460;-69
2021/10/20 08:48:54;;;;;;;7.80;7.10;;;15.90;99.90;;;;;;4955098;29;20469;-70
2021/10/20 08:51:22;;;;;;;7.93;7.13;;;15.90;99.90;;;;;;4954728;29;20484;-71
2021/10/20 08:53:51;;;;;;;7.83;6.37;;;16.00;99.90;;;;;;4954794;29;20983;-69
2021/10/20 08:56:18;;;;;;;8.10;7.30;;;16.00;99.90;;;;;;4948575;29;20470;-70
2021/10/20 08:58:45;;;;;;;7.90;7.30;;;16.00;99.90;;;;;;4935652;29;20473;-70
2021/10/20 09:01:12;;;;;;;8.30;7.10;;;16.10;99.90;;;;;;4935189;29;21010;-70
2021/10/20 09:03:39;;;;;;;8.67;7.77;;;16.10;99.90;;;;;;4935651;29;20898;-71
2021/10/20 09:06:05;;;;;;;10.00;8.43;;;16.30;99.90;;;;;;4936768;29;20585;-71
2021/10/20 09:08:41;;;;;;;10.13;7.20;;;16.30;99.90;;;;;;4935455;29;20473;-70
2021/10/20 09:11:24;;;;;;;8.07;7.37;;;16.40;99.90;;;;;;4935229;29;20584;-71
2021/10/20 09:13:50;;;;;;;6.97;6.47;;;16.50;99.90;;;;;;4935891;29;20484;-70
2021/10/20 09:16:21;;;;;;;8.93;8.13;;;16.60;99.90;;;;;;4939672;29;20472;-70
2021/10/20 09:18:49;;;;;;;8.60;7.80;;;16.70;99.90;;;;;;4954839;29;20556;-70
2021/10/20 09:21:15;;;;;;;7.73;7.03;;;16.70;99.90;;;;;;4954112;29;20997;-70
2021/10/20 09:23:42;;;;;;;8.70;7.90;;;16.80;99.90;;;;;;4954385;29;20469;-70
2021/10/20 09:26:10;;;;;;;8.00;7.40;;;16.80;99.90;;;;;;4953774;28;20524;-70
2021/10/20 09:28:39;;;;;;;8.27;7.57;;;16.80;99.90;;;;;;4953872;29;20476;-70
2021/10/20 09:31:07;;;;;;;7.87;7.07;;;16.80;99.90;;;;;;4954287;29;20649;-70
2021/10/20 09:33:35;;;;;;;8.47;7.77;;;16.80;99.90;;;;;;4954595;29;20487;-70
2021/10/20 09:36:03;;;;;;;8.33;7.63;;;16.90;99.90;;;;;;4954163;29;20460;-70
2021/10/20 09:38:33;;;;;;;9.47;7.67;;;16.90;99.90;;;;;;4954350;29;20503;-70
2021/10/20 09:41:04;;;;;;;7.93;7.10;;;16.90;99.90;;;;;;4954239;29;20523;-70
2021/10/20 09:43:31;;;;;;;8.23;7.40;;;17.00;99.90;;;;;;4954047;29;20449;-70
2021/10/20 09:46:02;;;;;;;8.47;7.77;;;17.00;99.90;;;;;;4939335;29;20489;-70
2021/10/20 09:48:29;;;;;;;11.30;7.80;;;17.10;99.90;;;;;;4935053;29;20465;-70
2021/10/20 09:50:58;;;;;;;8.50;7.70;;;17.10;99.90;;;;;;4935076;29;20500;-70
2021/10/20 09:53:27;;;;;;;8.13;7.20;;;17.10;99.90;;;;;;4934701;29;20465;-70
2021/10/20 09:55:54;;;;;;;7.37;6.77;;;17.20;99.90;;;;;;4946205;29;20599;-74
2021/10/20 09:58:20;;;;;;;8.47;7.57;;;17.10;99.90;;;;;;4952518;28;20468;-70
2021/10/20 10:00:47;;;;;;;8.63;7.40;;;17.20;99.90;;;;;;4936912;29;20903;-70
2021/10/20 10:03:15;;;;;;;9.07;8.07;;;17.20;99.90;;;;;;4935738;29;20465;-70
2021/10/20 10:05:42;;;;;;;8.03;7.43;;;17.30;99.90;;;;;;4943547;29;20536;-70
2021/10/20 10:08:08;;;;;;;8.23;7.53;;;17.20;99.90;;;;;;4947789;29;20465;-71
2021/10/20 10:10:36;;;;;;;8.43;7.53;;;17.30;99.90;;;;;;4950929;29;20535;-70
2021/10/20 10:13:08;;;;;;;7.17;6.60;;;17.30;99.90;;;;;;4965797;23;20608;-68
2021/10/20 10:15:38;;;;;;;8.03;7.33;;;17.50;99.90;;;;;;4944078;29;20472;-68
2021/10/20 10:18:05;;;;;;;7.10;6.60;;;17.60;99.90;;;;;;4949102;29;20461;-68
2021/10/20 10:20:39;;;;;;;7.30;6.60;;;17.70;99.90;;;;;;4953056;28;20559;-70
2021/10/20 10:23:07;;;;;;;7.83;7.13;;;17.90;99.90;;;;;;4937461;29;20484;-68
2021/10/20 10:25:36;;;;;;;7.47;6.87;;;18.10;99.90;;;;;;4923306;29;20498;-69
2021/10/20 10:28:08;;;;;;;7.83;6.97;;;18.10;99.90;;;;;;4917153;29;20485;-69
2021/10/20 10:30:47;;;;;;;7.80;6.70;;;18.10;99.90;;;;;;4918425;29;20838;-69
2021/10/20 10:33:20;;;;;;;10.80;7.47;;;18.10;99.90;;;;;;4914743;29;20482;-69
2021/10/20 10:36:03;;;;;;;7.60;6.90;;;18.20;99.90;;;;;;4907588;29;20459;-69
2021/10/20 10:38:38;;;;;;;8.13;7.43;;;18.20;99.90;;;;;;4917434;29;20516;-70
2021/10/20 10:41:25;;;;;;;6.90;6.40;;;18.20;99.90;;;;;;4918379;29;20525;-69
2021/10/20 10:44:11;;;;;;;7.53;6.90;;;18.30;99.90;;;;;;4919247;29;20486;-69
2021/10/20 10:46:40;;;;;;;7.70;7.00;;;18.30;99.90;;;;;;4914657;29;20490;-69
2021/10/20 10:49:26;;;;;;;6.77;6.27;;;18.40;99.90;;;;;;4914377;29;20474;-69
2021/10/20 10:52:21;;;;;;;6.60;6.10;;;18.40;99.90;;;;;;4914633;29;20477;-69
2021/10/20 10:54:59;;;;;;;7.53;6.83;;;18.40;99.90;;;;;;4914101;29;20482;-69
2021/10/20 10:57:45;;;;;;;7.67;6.30;;;18.40;99.90;;;;;;4914343;29;20481;-69
2021/10/20 11:00:46;;;;;;;7.20;6.70;;;18.50;99.90;;;;;;4914322;29;20846;-69
2021/10/20 11:03:21;;;;;;;6.87;6.47;;;18.60;99.90;;;;;;4903037;29;20653;-70
2021/10/20 11:05:50;;;;;;;7.47;6.93;;;18.60;99.90;;;;;;4918473;29;20484;-70
2021/10/20 11:08:20;;;;;;;7.00;6.40;;;18.50;99.90;;;;;;4924756;29;20472;-70
2021/10/20 11:10:48;;;;;;;6.57;6.17;;;18.50;99.90;;;;;;4932190;29;20472;-70
2021/10/20 11:13:16;;;;;;;6.30;5.70;;;18.40;99.90;;;;;;4933080;29;20589;-70
2021/10/20 11:15:44;;;;;;;6.30;5.87;;;18.40;99.90;;;;;;4922462;29;20486;-70
2021/10/20 11:18:10;;;;;;;6.90;6.50;;;18.40;99.90;;;;;;4913869;29;20959;-71
2021/10/20 11:20:42;;;;;;;6.53;6.00;;;18.40;99.90;;;;;;4914240;29;20891;-70
2021/10/20 11:23:11;;;;;;;6.70;6.03;;;18.30;99.90;;;;;;4910190;29;20906;-70
2021/10/20 11:25:41;;;;;;;6.53;6.10;;;18.20;99.90;;;;;;4926398;29;20614;-70
2021/10/20 11:28:09;;;;;;;6.93;6.23;;;18.20;99.90;;;;;;4932518;29;20465;-70
2021/10/20 11:30:37;;;;;;;6.20;5.70;;;18.10;99.90;;;;;;4925981;29;20503;-70
2021/10/20 11:33:08;;;;;;;7.13;6.53;;;18.10;99.90;;;;;;4913839;29;20486;-70
2021/10/20 11:35:35;;;;;;;7.20;6.60;;;18.10;99.90;;;;;;4913477;29;20469;-70
2021/10/20 11:38:04;;;;;;;7.03;6.53;;;18.00;99.90;;;;;;4914702;29;20533;-70
2021/10/20 11:40:32;;;;;;;7.37;6.73;;;18.10;99.90;;;;;;4913856;29;20518;-69
2021/10/20 11:43:01;;;;;;;6.60;6.07;;;18.10;99.90;;;;;;4916798;29;20493;-69
2021/10/20 11:45:30;;;;;;;6.80;6.20;;;18.10;99.90;;;;;;4921340;29;20541;-69
2021/10/20 11:48:01;;;;;;;5.60;5.20;;;18.10;99.90;;;;;;4912269;29;20502;-69
2021/10/20 11:50:29;;;;;;;5.77;5.40;;;18.10;99.90;;;;;;4913926;29;20494;-68
2021/10/20 11:53:00;;;;;;;6.10;5.60;;;18.00;99.90;;;;;;4913528;29;21220;-68
2021/10/20 11:55:28;;;;;;;5.63;5.23;;;18.00;99.90;;;;;;4912575;29;20582;-70
2021/10/20 11:57:55;;;;;;;6.17;5.67;;;18.10;99.90;;;;;;4917196;29;20507;-69
2021/10/20 12:00:23;;;;;;;5.87;5.10;;;18.10;99.90;;;;;;4919875;29;20584;-68
2021/10/20 12:02:50;;;;;;;5.63;5.27;;;18.10;99.90;;;;;;4913572;29;20887;-69
2021/10/20 12:05:17;;;;;;;5.87;5.50;;;18.20;99.90;;;;;;4913616;29;20521;-69
2021/10/20 12:07:47;;;;;;;5.40;4.63;;;18.20;99.90;;;;;;4913367;29;20521;-69
2021/10/20 12:10:15;;;;;;;6.13;5.73;;;18.30;99.90;;;;;;4913229;29;20498;-69
2021/10/20 12:12:43;;;;;;;6.23;5.60;;;18.20;99.90;;;;;;4913086;29;20462;-69
2021/10/20 12:15:16;;;;;;;5.90;5.60;;;18.20;99.90;;;;;;4915404;29;20549;-69
2021/10/20 12:17:45;;;;;;;4.73;4.53;;;18.20;99.90;;;;;;4908326;29;20470;-69
2021/10/20 12:20:14;;;;;;;5.23;4.93;;;18.10;99.90;;;;;;4902775;29;20497;-70
2021/10/20 12:22:41;;;;;;;5.67;5.17;;;18.10;99.90;;;;;;4915757;29;20785;-70
2021/10/20 12:25:09;;;;;;;5.23;4.43;;;18.10;99.90;;;;;;4924381;29;20498;-70
2021/10/20 12:27:39;;;;;;;6.00;5.60;;;18.10;99.90;;;;;;4915891;29;20541;-70
2021/10/20 12:30:08;;;;;;;5.33;4.87;;;18.00;99.90;;;;;;4916251;29;21031;-70
2021/10/20 12:32:36;;;;;;;7.00;4.97;;;18.00;99.90;;;;;;4916443;29;20465;-70
2021/10/20 12:35:08;;;;;;;5.17;4.70;;;17.90;99.90;;;;;;4916641;29;20473;-70
2021/10/20 12:37:38;;;;;;;5.83;5.40;;;17.90;99.90;;;;;;4915771;29;20843;-70
2021/10/20 12:40:10;;;;;;;5.63;5.23;;;17.80;99.90;;;;;;4915739;29;20467;-70
2021/10/20 12:42:46;;;;;;;6.03;5.63;;;17.80;99.90;;;;;;4918721;29;20469;-69
2021/10/20 12:45:14;;;;;;;5.80;5.33;;;17.70;99.90;;;;;;4918332;29;20470;-69
2021/10/20 12:47:43;;;;;;;6.03;5.50;;;17.70;99.90;;;;;;4923569;29;20477;-70
2021/10/20 12:50:13;;;;;;;5.70;5.30;;;17.60;99.90;;;;;;4924782;29;20518;-69
2021/10/20 12:52:41;;;;;;;6.80;6.20;;;17.60;99.90;;;;;;4909038;29;20924;-69
2021/10/20 12:55:09;;;;;;;5.20;4.90;;;17.60;99.90;;;;;;4916150;29;20476;-70
2021/10/20 12:57:38;;;;;;;6.40;5.83;;;17.50;99.90;;;;;;4915800;29;20463;-69
2021/10/20 13:00:14;;;;;;;6.93;6.33;;;17.50;99.90;;;;;;4917120;29;20470;-70
2021/10/20 13:02:41;;;;;;;6.07;5.60;;;17.50;99.90;;;;;;4909139;29;20476;-69
2021/10/20 13:05:08;;;;;;;6.00;5.60;;;17.50;99.90;;;;;;4916534;29;20493;-70
2021/10/20 13:07:37;;;;;;;6.33;5.87;;;17.50;99.90;;;;;;4915928;29;20493;-70
2021/10/20 13:10:06;;;;;;;6.43;5.90;;;17.50;99.90;;;;;;4923409;29;20477;-70
2021/10/20 13:12:32;;;;;;;6.20;5.80;;;17.60;99.90;;;;;;4919741;29;20473;-70
2021/10/20 13:14:59;;;;;;;7.07;6.37;;;17.60;99.90;;;;;;4915819;29;21070;-69
2021/10/20 13:17:26;;;;;;;7.37;6.70;;;17.60;99.90;;;;;;4915789;29;20467;-70
2021/10/20 13:19:52;;;;;;;6.20;5.70;;;17.70;99.90;;;;;;4921656;29;20470;-70
2021/10/20 13:22:19;;;;;;;7.17;6.60;;;17.70;99.90;;;;;;4926049;29;20470;-70
2021/10/20 13:24:47;;;;;;;6.20;5.90;;;17.70;99.90;;;;;;4915511;29;21014;-69
2021/10/20 13:27:14;;;;;;;7.23;6.73;;;17.70;99.90;;;;;;4915494;29;20498;-69
2021/10/20 13:29:40;;;;;;;6.53;6.13;;;17.80;99.90;;;;;;4928648;29;20514;-70
2021/10/20 13:32:07;;;;;;;7.97;6.97;;;17.70;99.90;;;;;;4915853;29;20467;-70
2021/10/20 13:34:34;;;;;;;8.03;7.33;;;17.70;99.90;;;;;;4914611;29;20498;-70
2021/10/20 13:37:00;;;;;;;7.80;7.07;;;17.70;99.90;;;;;;4915412;29;20462;-70
2021/10/20 13:39:27;;;;;;;7.10;6.70;;;17.80;99.90;;;;;;4915161;29;20478;-70
2021/10/20 13:41:55;;;;;;;7.60;7.03;;;17.80;99.90;;;;;;4915364;29;20581;-70
2021/10/20 13:44:22;;;;;;;6.60;5.93;;;17.80;99.90;;;;;;4915501;29;20490;-70
2021/10/20 13:46:48;;;;;;;6.70;6.27;;;17.80;99.90;;;;;;4915249;29;20501;-70
2021/10/20 13:49:16;;;;;;;7.63;6.93;;;17.80;99.90;;;;;;4921234;29;20454;-70
2021/10/20 13:51:43;;;;;;;8.70;7.80;;;17.80;99.90;;;;;;4928640;29;20471;-70
2021/10/20 13:54:10;;;;;;;7.83;7.20;;;17.80;99.90;;;;;;4915561;29;20486;-70
2021/10/20 13:56:37;;;;;;;7.13;6.63;;;17.80;99.90;;;;;;4933881;29;20473;-69
2021/10/20 13:59:05;;;;;;;8.37;7.83;;;17.90;99.90;;;;;;4914628;29;20566;-69
2021/10/20 14:01:32;;;;;;;7.43;6.93;;;17.90;99.90;;;;;;4914905;29;20514;-69
2021/10/20 14:03:59;;;;;;;7.93;7.20;;;17.90;99.90;;;;;;4914975;29;20568;-69
2021/10/20 14:06:26;;;;;;;7.00;6.50;;;18.00;99.90;;;;;;4915062;29;20904;-69
2021/10/20 14:08:53;;;;;;;6.10;5.80;;;18.00;99.90;;;;;;4914726;29;20466;-69
2021/10/20 14:11:19;;;;;;;7.00;6.40;;;18.00;99.90;;;;;;4914221;29;20463;-68
2021/10/20 14:13:46;;;;;;;6.13;5.67;;;18.10;99.90;;;;;;4924884;29;20540;-68
2021/10/20 14:16:14;;;;;;;6.53;6.00;;;18.00;99.90;;;;;;4918686;29;20467;-67
2021/10/20 14:18:43;;;;;;;7.60;7.00;;;18.10;99.90;;;;;;4914352;29;20471;-67
2021/10/20 14:21:09;;;;;;;6.13;5.73;;;18.10;99.90;;;;;;4924124;29;21119;-67
2021/10/20 14:23:36;;;;;;;6.70;6.30;;;18.10;99.90;;;;;;4913978;29;20497;-67
2021/10/20 14:26:04;;;;;;;6.53;6.03;;;18.10;99.90;;;;;;4927096;29;20500;-67
2021/10/20 14:28:30;;;;;;;6.40;5.90;;;18.10;99.90;;;;;;4920653;29;20463;-67
2021/10/20 14:30:58;;;;;;;6.60;6.10;;;18.10;99.90;;;;;;4914836;29;20514;-67
2021/10/20 14:33:26;;;;;;;6.43;5.97;;;18.10;99.90;;;;;;4914813;29;20597;-68
2021/10/20 14:35:52;;;;;;;5.73;5.43;;;18.10;99.90;;;;;;4914657;29;20462;-68
2021/10/20 14:38:19;;;;;;;6.57;6.07;;;18.00;99.90;;;;;;4914790;29;20474;-68
2021/10/20 14:40:52;;;;;;;7.93;7.20;;;18.00;99.90;;;;;;4914636;29;20470;-68
2021/10/20 14:43:20;;;;;;;6.07;5.77;;;18.00;99.90;;;;;;4914483;29;20517;-68
2021/10/20 14:45:47;;;;;;;7.00;6.60;;;17.90;99.90;;;;;;4913573;29;20466;-68
2021/10/20 14:48:14;;;;;;;6.97;6.30;;;17.90;99.90;;;;;;4922180;29;20466;-68
2021/10/20 14:50:42;;;;;;;6.67;6.27;;;17.90;99.90;;;;;;4933537;29;20576;-68
2021/10/20 14:53:09;;;;;;;8.03;6.23;;;17.80;99.90;;;;;;4933147;29;20868;-67
2021/10/20 14:55:36;;;;;;;6.83;6.43;;;17.80;99.90;;;;;;4926318;29;20466;-67
2021/10/20 14:58:02;;;;;;;6.70;6.20;;;17.80;99.90;;;;;;4913816;29;20478;-68
2021/10/20 15:00:29;;;;;;;6.93;6.43;;;17.70;99.90;;;;;;4914326;29;20470;-68
2021/10/20 15:02:56;;;;;;;7.13;6.37;;;17.70;99.90;;;;;;4914391;29;20471;-67
2021/10/20 15:05:24;;;;;;;7.07;6.67;;;17.70;99.90;;;;;;4914332;29;20466;-67
2021/10/20 15:07:52;;;;;;;5.93;5.63;;;17.70;99.90;;;;;;4927214;29;20496;-67
2021/10/20 15:10:21;;;;;;;7.27;5.90;;;17.70;99.90;;;;;;4916512;29;20462;-68
2021/10/20 15:12:47;;;;;;;6.43;5.93;;;17.70;99.90;;;;;;4912729;29;20545;-67
2021/10/20 15:15:14;;;;;;;7.50;6.83;;;17.70;99.90;;;;;;4929889;29;20474;-67
2021/10/20 15:17:41;;;;;;;5.80;5.50;;;17.60;99.90;;;;;;4914736;29;20462;-67
2021/10/20 15:20:11;;;;;;;7.17;6.70;;;17.60;99.90;;;;;;4914278;29;20537;-67
2021/10/20 15:22:39;;;;;;;6.87;6.13;;;17.50;99.90;;;;;;4905798;29;20459;-67
2021/10/20 15:25:09;;;;;;;6.40;6.00;;;17.50;99.90;;;;;;4895007;29;20471;-67
2021/10/20 15:27:35;;;;;;;6.67;6.27;;;17.40;99.90;;;;;;4926417;29;20975;-67
2021/10/20 15:30:02;;;;;;;6.37;6.00;;;17.40;99.90;;;;;;4933301;29;20477;-67
2021/10/20 15:32:29;;;;;;;6.87;6.27;;;17.40;99.90;;;;;;4933214;29;20469;-67
2021/10/20 15:34:55;;;;;;;7.00;6.30;;;17.40;99.90;;;;;;4917839;29;20493;-67
2021/10/20 15:37:22;;;;;;;5.90;5.50;;;17.30;99.90;;;;;;4913864;29;20459;-69
2021/10/20 15:39:49;;;;;;;9.77;6.10;;;17.30;99.90;;;;;;4913811;29;20569;-69
2021/10/20 15:42:18;;;;;;;6.50;5.60;;;17.30;99.90;;;;;;4914211;29;20545;-69
2021/10/20 15:44:46;;;;;;;6.50;6.10;;;17.30;99.90;;;;;;4921225;29;20486;-70
2021/10/20 15:47:13;;;;;;;6.13;5.77;;;17.20;99.90;;;;;;4914385;29;20534;-70
2021/10/20 15:49:41;;;;;;;5.93;5.63;;;17.20;99.90;;;;;;4913752;29;20808;-69
2021/10/20 15:52:09;;;;;;;6.30;5.90;;;17.20;99.90;;;;;;4913694;29;21019;-69
2021/10/20 15:54:36;;;;;;;5.63;5.33;;;17.10;99.90;;;;;;4913753;29;20637;-70
2021/10/20 15:57:03;;;;;;;6.20;5.80;;;17.10;99.90;;;;;;4916284;29;20979;-70
2021/10/20 15:59:31;;;;;;;6.30;5.77;;;17.10;99.90;;;;;;4917638;29;20466;-70
2021/10/20 16:01:59;;;;;;;6.37;6.07;;;17.10;99.90;;;;;;4916850;29;20470;-69
2021/10/20 16:04:25;;;;;;;6.00;5.60;;;17.00;99.90;;;;;;4926573;29;20538;-69
2021/10/20 16:06:52;;;;;;;5.37;5.17;;;17.10;99.90;;;;;;4931858;29;20549;-69
2021/10/20 16:09:19;;;;;;;6.73;5.97;;;17.00;99.90;;;;;;4916696;29;20481;-69
2021/10/20 16:11:45;;;;;;;6.83;6.37;;;17.10;99.90;;;;;;4917997;29;20473;-70
2021/10/20 16:14:12;;;;;;;6.87;6.43;;;17.00;99.90;;;;;;4916809;29;20530;-70
2021/10/20 16:16:40;;;;;;;6.20;5.80;;;17.00;99.90;;;;;;4917137;29;20466;-70
2021/10/20 16:19:06;;;;;;;7.27;6.70;;;17.00;99.90;;;;;;4916655;29;20466;-69
2021/10/20 16:21:33;;;;;;;6.00;5.70;;;16.90;99.90;;;;;;4917316;29;20481;-69
2021/10/20 16:24:00;;;;;;;6.57;6.17;;;16.90;99.90;;;;;;4914276;29;20494;-69
2021/10/20 16:26:26;;;;;;;6.47;6.07;;;16.90;99.90;;;;;;4926172;29;20494;-70
2021/10/20 16:28:54;;;;;;;7.20;6.60;;;16.90;99.90;;;;;;4936578;29;20493;-70
2021/10/20 16:31:21;;;;;;;7.70;7.20;;;16.90;99.90;;;;;;4921236;29;20459;-70
2021/10/20 16:33:49;;;;;;;8.00;7.30;;;16.90;99.90;;;;;;4917088;29;20489;-70
2021/10/20 16:36:16;;;;;;;7.40;6.80;;;16.90;99.90;;;;;;4915360;29;20474;-70
2021/10/20 16:38:43;;;;;;;6.40;6.00;;;16.90;99.90;;;;;;4916754;29;20513;-70
2021/10/20 16:41:10;;;;;;;8.40;7.70;;;16.90;99.90;;;;;;4915886;29;20522;-70
2021/10/20 16:43:37;;;;;;;8.00;7.50;;;16.90;99.90;;;;;;4897837;29;20562;-70
2021/10/20 16:46:04;;;;;;;7.17;6.77;;;16.80;99.90;;;;;;4920493;29;20828;-69
2021/10/20 16:48:30;;;;;;;8.10;7.60;;;16.80;99.90;;;;;;4922241;29;20494;-69
2021/10/20 16:50:58;;;;;;;6.70;6.40;;;16.80;99.90;;;;;;4935923;29;20489;-69